createdAt,value
2018-10-12T00:02:11.631Z,100943.66
2018-10-12T00:04:42.140Z,100947.26
2018-10-12T00:07:11.508Z,100944.23
2018-10-12T00:09:40.851Z,100951.66
2018-10-12T00:12:10.163Z,100953.92
2018-10-12T00:14:39.613Z,100966.91
2018-10-12T00:17:08.940Z,100965.32
2018-10-12T00:19:38.330Z,100968.99
2018-10-12T00:22:07.722Z,100973.10
2018-10-12T00:24:37.062Z,100978.05
2018-10-12T00:27:06.605Z,100976.09
2018-10-12T00:29:35.950Z,100978.88
2018-10-12T00:32:05.682Z,100979.34
2018-10-12T00:34:35.035Z,100979.56
2018-10-12T00:37:04.368Z,100980.14
2018-10-12T00:39:33.757Z,100981.94
2018-10-12T00:42:03.367Z,100984.83
2018-10-12T00:44:32.955Z,100981.55
2018-10-12T00:47:02.283Z,100979.34
2018-10-12T00:49:32.726Z,100978.16
2018-10-12T00:52:02.421Z,100982.13
2018-10-12T00:54:31.924Z,100969.80
2018-10-12T00:57:01.431Z,100973.65
2018-10-12T00:59:30.897Z,100987.55
2018-10-12T01:02:00.762Z,100986.69
2018-10-12T01:04:30.458Z,100982.69
2018-10-12T01:06:59.792Z,100998.47
2018-10-12T01:09:29.303Z,100993.79
2018-10-12T01:12:10.565Z,100998.87
2018-10-12T01:14:39.836Z,100991.98
2018-10-12T01:17:09.193Z,100981.22
2018-10-12T01:19:38.710Z,100986.27
2018-10-12T01:22:08.126Z,100985.03
2018-10-12T01:24:37.595Z,100989.75
2018-10-12T01:27:06.896Z,100984.99
2018-10-12T01:29:36.408Z,100985.86
2018-10-12T01:32:05.830Z,100966.44
2018-10-12T01:34:35.376Z,100971.23
2018-10-12T01:37:04.909Z,100969.43
2018-10-12T01:39:34.619Z,100965.91
2018-10-12T01:42:05.016Z,100968.93
2018-10-12T01:44:34.586Z,100967.59
2018-10-12T01:47:03.919Z,100987.19
2018-10-12T01:49:33.466Z,100995.80
2018-10-12T01:52:02.714Z,100997.42
2018-10-12T01:54:32.303Z,100999.59
2018-10-12T01:57:01.662Z,101010.15
2018-10-12T01:59:31.366Z,101008.09
2018-10-12T02:02:00.701Z,101014.36
2018-10-12T02:04:30.014Z,101010.32
2018-10-12T02:06:59.437Z,101015.75
2018-10-12T02:09:28.887Z,101024.72
2018-10-12T02:11:58.454Z,101028.33
2018-10-12T02:14:28.674Z,101030.34
2018-10-12T02:16:59.852Z,101032.17
2018-10-12T02:19:29.213Z,101036.55
2018-10-12T02:21:59.219Z,101036.83
2018-10-12T02:24:28.526Z,101032.77
2018-10-12T02:26:57.897Z,101034.48
2018-10-12T02:29:27.222Z,101035.66
2018-10-12T02:31:56.635Z,101033.00
2018-10-12T02:34:26.056Z,101032.73
2018-10-12T02:36:55.677Z,101039.50
2018-10-12T02:39:25.147Z,101034.84
2018-10-12T02:41:54.798Z,101038.53
2018-10-12T02:44:24.194Z,101041.01
2018-10-12T02:47:00.115Z,101047.05
2018-10-12T02:49:29.525Z,101058.47
2018-10-12T02:51:58.914Z,101049.09
2018-10-12T02:54:28.843Z,101062.42
2018-10-12T02:56:58.229Z,101073.73
2018-10-12T02:59:27.816Z,101075.37
2018-10-12T03:01:57.296Z,101079.16
2018-10-12T03:04:26.684Z,101077.63
2018-10-12T03:06:56.042Z,101082.95
2018-10-12T03:09:25.468Z,101084.65
2018-10-12T03:11:54.816Z,101086.38
2018-10-12T03:14:24.216Z,101090.38
2018-10-12T03:16:53.566Z,101085.47
2018-10-12T03:19:22.944Z,101093.66
2018-10-12T03:21:55.566Z,101095.16
2018-10-12T03:24:25.098Z,101090.85
2018-10-12T03:26:54.674Z,101095.41
2018-10-12T03:29:24.230Z,101092.44
2018-10-12T03:31:54.765Z,101090.94
2018-10-12T03:34:24.252Z,101091.25
2018-10-12T03:36:53.882Z,101094.13
2018-10-12T03:39:23.589Z,101092.80
2018-10-12T03:41:53.585Z,101107.81
2018-10-12T03:44:22.908Z,101116.41
2018-10-12T03:46:52.415Z,101112.61
2018-10-12T03:49:21.849Z,101114.31
2018-10-12T03:51:51.361Z,101120.97
2018-10-12T03:54:20.894Z,101128.59
2018-10-12T03:56:52.009Z,101138.48
2018-10-12T03:59:21.616Z,101144.48
2018-10-12T04:01:51.157Z,101144.41
2018-10-12T04:04:20.657Z,101143.28
2018-10-12T04:06:50.339Z,101150.50
2018-10-12T04:09:19.737Z,101150.34
2018-10-12T04:11:49.377Z,101141.95
2018-10-12T04:14:18.767Z,101145.17
2018-10-12T04:16:48.621Z,101137.48
2018-10-12T04:19:18.174Z,101136.66
2018-10-12T04:21:47.670Z,101132.26
2018-10-12T04:24:17.132Z,101136.84
2018-10-12T04:26:46.992Z,101141.58
2018-10-12T04:29:16.626Z,101151.93
2018-10-12T04:31:46.747Z,101157.92
2018-10-12T04:34:16.094Z,101163.81
2018-10-12T04:36:45.787Z,101167.44
2018-10-12T04:39:26.284Z,101174.66
2018-10-12T04:41:55.797Z,101169.34
2018-10-12T04:44:25.178Z,101169.53
2018-10-12T04:46:54.869Z,101187.44
2018-10-12T04:49:25.887Z,101196.36
2018-10-12T04:51:56.719Z,101193.05
2018-10-12T04:54:26.448Z,101199.71
2018-10-12T04:57:00.442Z,101207.39
2018-10-12T04:59:31.082Z,101214.80
2018-10-12T05:02:00.596Z,101219.95
2018-10-12T05:04:30.298Z,101222.34
2018-10-12T05:06:59.874Z,101230.22
2018-10-12T05:09:29.947Z,101222.80
2018-10-12T05:11:59.660Z,101232.11
2018-10-12T05:14:29.105Z,101231.75
2018-10-12T05:16:59.435Z,101239.23
2018-10-12T05:19:28.690Z,101245.52
2018-10-12T05:21:58.520Z,101245.21
2018-10-12T05:24:27.949Z,101254.25
2018-10-12T05:26:57.303Z,101250.91
2018-10-12T05:29:27.629Z,101253.95
2018-10-12T05:31:57.169Z,101261.74
2018-10-12T05:34:26.767Z,101260.91
2018-10-12T05:36:56.311Z,101261.28
2018-10-12T05:39:25.796Z,101262.52
2018-10-12T05:41:55.541Z,101264.72
2018-10-12T05:44:26.054Z,101265.55
2018-10-12T05:46:55.457Z,101263.29
2018-10-12T05:49:36.001Z,101269.45
2018-10-12T05:52:05.810Z,101273.44
2018-10-12T05:54:36.194Z,101284.18
2018-10-12T05:57:06.890Z,101297.58
2018-10-12T05:59:38.145Z,101285.52
2018-10-12T06:02:08.859Z,101288.95
2018-10-12T06:04:38.872Z,101287.98
2018-10-12T06:07:08.840Z,101291.14
2018-10-12T06:09:39.324Z,101288.95
2018-10-12T06:12:09.728Z,101299.69
2018-10-12T06:14:39.268Z,101296.09
2018-10-12T06:17:10.787Z,101295.72
2018-10-12T06:19:40.208Z,101292.00
2018-10-12T06:22:09.915Z,101297.73
2018-10-12T06:24:39.725Z,101297.08
2018-10-12T06:27:09.464Z,101309.92
2018-10-12T06:29:39.771Z,101303.16
2018-10-12T06:32:09.385Z,101310.47
2018-10-12T06:34:38.751Z,101317.06
2018-10-12T06:37:09.191Z,101329.70
2018-10-12T06:39:38.768Z,101339.14
2018-10-12T06:42:08.250Z,101341.59
2018-10-12T06:44:37.690Z,101339.98
2018-10-12T06:47:07.024Z,101355.22
2018-10-12T06:49:36.857Z,101359.20
2018-10-12T06:52:06.231Z,101367.41
2018-10-12T06:54:35.725Z,101378.61
2018-10-12T06:57:06.278Z,101386.72
2018-10-12T06:59:35.619Z,101389.85
2018-10-12T07:02:05.126Z,101390.63
2018-10-12T07:04:34.653Z,101396.88
2018-10-12T07:07:04.304Z,101397.28
2018-10-12T07:09:34.261Z,101400.99
2018-10-12T07:12:03.916Z,101406.03
2018-10-12T07:14:33.705Z,101398.04
2018-10-12T07:17:03.240Z,101399.21
2018-10-12T07:19:33.314Z,101400.72
2018-10-12T07:22:03.475Z,101400.47
2018-10-12T07:24:32.897Z,101412.17
2018-10-12T07:27:02.522Z,101407.70
2018-10-12T07:29:32.073Z,101415.52
2018-10-12T07:32:01.942Z,101420.94
2018-10-12T07:34:31.350Z,101416.34
2018-10-12T07:37:15.055Z,101425.09
2018-10-12T07:39:47.761Z,101428.89
2018-10-12T07:42:17.301Z,101428.39
2018-10-12T07:44:53.460Z,101434.50
2018-10-12T07:47:29.018Z,101432.46
2018-10-12T07:49:58.665Z,101431.02
2018-10-12T07:52:28.271Z,101437.59
2018-10-12T07:54:58.070Z,101448.94
2018-10-12T07:57:32.410Z,101447.70
2018-10-12T08:00:02.865Z,101448.22
2018-10-12T08:02:32.644Z,101444.37
2018-10-12T08:05:03.422Z,101446.47
2018-10-12T08:07:33.868Z,101444.39
2018-10-12T08:10:03.608Z,101450.55
2018-10-12T08:12:33.155Z,101446.48
2018-10-12T08:15:02.832Z,101455.55
2018-10-12T08:17:32.422Z,101459.51
2018-10-12T08:20:02.067Z,101462.16
2018-10-12T08:22:31.435Z,101466.16
2018-10-12T08:25:00.939Z,101465.58
2018-10-12T08:27:31.055Z,101472.56
2018-10-12T08:30:00.509Z,101473.61
2018-10-12T08:32:30.590Z,101479.98
2018-10-12T08:35:00.168Z,101477.92
2018-10-12T08:37:29.513Z,101477.02
2018-10-12T08:39:59.069Z,101478.57
2018-10-12T08:42:28.552Z,101484.50
2018-10-12T08:44:58.342Z,101484.68
2018-10-12T08:47:29.023Z,101491.58
2018-10-12T08:49:58.528Z,101495.95
2018-10-12T08:52:28.055Z,101498.61
2018-10-12T08:54:58.621Z,101490.96
2018-10-12T08:57:28.287Z,101493.58
2018-10-12T08:59:57.793Z,101487.25
2018-10-12T09:02:27.138Z,101484.52
2018-10-12T09:04:56.725Z,101491.94
2018-10-12T09:07:26.236Z,101492.13
2018-10-12T09:09:55.572Z,101495.75
2018-10-12T09:12:25.657Z,101488.30
2018-10-12T09:14:54.903Z,101490.86
2018-10-12T09:17:24.873Z,101488.46
2018-10-12T09:19:54.378Z,101491.73
2018-10-12T09:22:24.454Z,101490.17
2018-10-12T09:24:54.313Z,101494.48
2018-10-12T09:27:23.716Z,101495.48
2018-10-12T09:29:56.591Z,101497.70
2018-10-12T09:32:26.104Z,101499.09
2018-10-12T09:34:55.496Z,101504.85
2018-10-12T09:37:26.066Z,101494.41
2018-10-12T09:39:55.609Z,101495.55
2018-10-12T09:42:25.204Z,101495.67
2018-10-12T09:44:54.679Z,101493.63
2018-10-12T09:47:24.339Z,101492.80
2018-10-12T09:49:53.794Z,101494.30
2018-10-12T09:52:23.267Z,101491.86
2018-10-12T09:54:52.805Z,101489.68
2018-10-12T09:57:26.384Z,101493.70
2018-10-12T09:59:56.043Z,101499.84
2018-10-12T10:02:30.961Z,101487.53
2018-10-12T10:05:05.623Z,101483.86
2018-10-12T10:07:35.091Z,101478.73
2018-10-12T10:10:04.711Z,101472.55
2018-10-12T10:12:34.134Z,101472.91
2018-10-12T10:15:03.411Z,101465.59
2018-10-12T10:17:32.833Z,101471.67
2018-10-12T10:20:02.516Z,101469.28
2018-10-12T10:22:32.210Z,101470.64
2018-10-12T10:25:01.762Z,101466.09
2018-10-12T10:27:31.788Z,101466.73
2018-10-12T10:30:01.569Z,101467.94
2018-10-12T10:32:31.587Z,101470.27
2018-10-12T10:35:01.420Z,101470.37
2018-10-12T10:37:30.833Z,101469.64
2018-10-12T10:40:00.872Z,101467.56
2018-10-12T10:42:30.548Z,101453.13
2018-10-12T10:45:00.679Z,101449.70
2018-10-12T10:47:30.162Z,101451.41
2018-10-12T10:49:59.574Z,101462.25
2018-10-12T10:52:29.185Z,101453.36
2018-10-12T10:54:58.579Z,101454.06
2018-10-12T10:57:28.031Z,101457.84
2018-10-12T10:59:57.492Z,101456.97
2018-10-12T11:02:27.132Z,101445.58
2018-10-12T11:04:56.445Z,101452.30
2018-10-12T11:07:26.320Z,101456.16
2018-10-12T11:09:56.244Z,101452.47
2018-10-12T11:12:25.935Z,101450.69
2018-10-12T11:14:55.261Z,101448.00
2018-10-12T11:17:25.674Z,101448.55
2018-10-12T11:19:56.033Z,101449.60
2018-10-12T11:22:25.933Z,101450.93
2018-10-12T11:24:55.602Z,101443.73
2018-10-12T11:27:25.304Z,101441.36
2018-10-12T11:29:54.838Z,101441.49
2018-10-12T11:32:24.816Z,101443.11
2018-10-12T11:34:54.418Z,101438.74
2018-10-12T11:37:25.072Z,101446.52
2018-10-12T11:39:54.522Z,101445.66
2018-10-12T11:42:28.505Z,101432.67
2018-10-12T11:44:58.496Z,101437.05
2018-10-12T11:47:28.143Z,101430.84
2018-10-12T11:49:58.837Z,101429.43
2018-10-12T11:52:30.046Z,101424.28
2018-10-12T11:55:01.677Z,101431.21
2018-10-12T11:57:31.318Z,101428.19
2018-10-12T12:00:00.872Z,101435.41
2018-10-12T12:02:30.648Z,101429.85
2018-10-12T12:05:00.402Z,101428.91
2018-10-12T12:07:32.302Z,101426.02
2018-10-12T12:10:03.168Z,101433.68
2018-10-12T12:12:33.656Z,101421.14
2018-10-12T12:15:04.461Z,101412.80
2018-10-12T12:17:37.449Z,101413.38
2018-10-12T12:20:08.048Z,101420.84
2018-10-12T12:22:39.324Z,101422.14
2018-10-12T12:25:10.233Z,101420.48
2018-10-12T12:27:40.897Z,101418.39
2018-10-12T12:30:12.963Z,101410.41
2018-10-12T12:32:44.126Z,101418.23
2018-10-12T12:37:48.976Z,101409.14
2018-10-12T12:40:24.052Z,101410.41
2018-10-12T12:42:56.073Z,101417.50
2018-10-12T12:45:28.079Z,101408.16
2018-10-12T12:47:57.956Z,101412.41
2018-10-12T12:50:27.911Z,101409.23
2018-10-12T12:52:58.090Z,101410.05
2018-10-12T12:55:28.551Z,101406.47
2018-10-12T12:57:59.447Z,101408.98
2018-10-12T13:00:29.466Z,101406.41
2018-10-12T13:03:00.446Z,101399.73
2018-10-12T13:05:30.269Z,101398.34
2018-10-12T13:08:00.712Z,101398.00
2018-10-12T13:10:30.306Z,101400.52
2018-10-12T13:12:59.642Z,101397.44
2018-10-12T13:15:29.972Z,101391.81
2018-10-12T13:17:59.540Z,101398.71
2018-10-12T13:20:29.551Z,101396.19
2018-10-12T13:22:59.301Z,101407.67
2018-10-12T13:25:29.335Z,101406.77
2018-10-12T13:27:58.924Z,101417.00
2018-10-12T13:30:28.550Z,101413.47
2018-10-12T13:32:58.550Z,101416.60
2018-10-12T13:35:29.393Z,101414.25
2018-10-12T13:37:59.202Z,101421.99
2018-10-12T13:40:28.677Z,101431.59
2018-10-12T13:42:58.584Z,101434.22
2018-10-12T13:45:27.888Z,101431.97
2018-10-12T13:47:57.276Z,101438.28
2018-10-12T13:50:26.786Z,101436.40
2018-10-12T13:52:56.664Z,101431.65
2018-10-12T13:55:26.799Z,101442.70
2018-10-12T13:57:57.072Z,101434.16
2018-10-12T14:00:27.035Z,101444.38
2018-10-12T14:02:56.925Z,101437.64
2018-10-12T14:05:28.878Z,101435.03
2018-10-12T14:07:58.364Z,101431.67
2018-10-12T14:10:30.968Z,101423.81
2018-10-12T14:13:00.918Z,101420.66
2018-10-12T14:15:30.484Z,101428.16
2018-10-12T14:18:00.406Z,101419.09
2018-10-12T14:20:30.227Z,101435.78
2018-10-12T14:23:00.845Z,101433.48
2018-10-12T14:25:33.511Z,101427.31
2018-10-12T14:28:04.349Z,101425.08
2018-10-12T14:30:35.026Z,101425.91
2018-10-12T14:33:04.554Z,101423.72
2018-10-12T14:35:34.349Z,101423.67
2018-10-12T14:38:04.424Z,101421.13
2018-10-12T14:40:34.142Z,101417.36
2018-10-12T14:43:04.132Z,101412.76
2018-10-12T14:45:34.480Z,101411.54
2018-10-12T14:48:04.785Z,101406.13
2018-10-12T14:50:35.604Z,101415.55
2018-10-12T14:53:11.982Z,101414.84
2018-10-12T14:55:42.102Z,101420.23
2018-10-12T14:58:11.552Z,101415.63
2018-10-12T15:00:40.972Z,101421.51
2018-10-12T15:03:10.480Z,101415.34
2018-10-12T15:05:40.980Z,101420.75
2018-10-12T15:08:10.742Z,101423.80
2018-10-12T15:10:40.651Z,101416.81
2018-10-12T15:13:10.152Z,101415.38
2018-10-12T15:15:39.613Z,101420.05
2018-10-12T15:18:09.221Z,101417.29
2018-10-12T15:20:39.815Z,101416.95
2018-10-12T15:23:09.578Z,101414.64
2018-10-12T15:25:38.946Z,101420.15
2018-10-12T15:28:08.420Z,101419.41
2018-10-12T15:30:38.177Z,101415.66
2018-10-12T15:33:07.757Z,101425.12
2018-10-12T15:35:38.370Z,101427.83
2018-10-12T15:38:07.856Z,101425.44
2018-10-12T15:40:38.117Z,101427.17
2018-10-12T15:43:09.030Z,101421.70
2018-10-12T15:45:38.719Z,101425.73
2018-10-12T15:48:08.302Z,101425.56
2018-10-12T15:50:38.791Z,101424.95
2018-10-12T15:53:09.810Z,101429.34
2018-10-12T15:55:42.861Z,101427.02
2018-10-12T15:58:14.392Z,101426.25
2018-10-12T16:00:46.899Z,101427.75
2018-10-12T16:03:16.455Z,101423.28
2018-10-12T16:05:46.103Z,101437.03
2018-10-12T16:08:15.807Z,101431.05
2018-10-12T16:10:46.055Z,101432.64
2018-10-12T16:13:15.545Z,101431.88
2018-10-12T16:15:45.000Z,101428.52
2018-10-12T16:18:14.415Z,101430.45
2018-10-12T16:20:44.011Z,101432.02
2018-10-12T16:23:14.066Z,101432.11
2018-10-12T16:26:21.085Z,101433.43
2018-10-12T16:28:50.770Z,101436.75
2018-10-12T16:31:20.270Z,101434.65
2018-10-12T16:33:49.753Z,101440.55
2018-10-12T16:36:22.934Z,101435.34
2018-10-12T16:38:53.209Z,101444.97
2018-10-12T16:41:22.866Z,101449.73
2018-10-12T16:43:52.505Z,101455.32
2018-10-12T16:46:22.167Z,101456.21
2018-10-12T16:48:51.841Z,101450.52
2018-10-12T16:51:26.462Z,101450.61
2018-10-12T16:53:55.932Z,101452.61
2018-10-12T16:56:26.178Z,101452.16
2018-10-12T16:58:57.661Z,101459.23
2018-10-12T17:01:27.495Z,101456.53
2018-10-12T17:03:58.589Z,101458.89
2018-10-12T17:06:31.197Z,101448.98
2018-10-12T17:09:01.104Z,101453.55
2018-10-12T17:11:32.096Z,101451.16
2018-10-12T17:14:02.768Z,101462.05
2018-10-12T17:16:33.656Z,101459.34
2018-10-12T17:19:03.488Z,101463.00
2018-10-12T17:21:34.868Z,101466.67
2018-10-12T17:24:05.236Z,101463.70
2018-10-12T17:26:35.074Z,101466.27
2018-10-12T17:29:05.283Z,101469.62
2018-10-12T17:31:36.110Z,101465.93
2018-10-12T17:34:06.231Z,101470.86
2018-10-12T17:36:41.300Z,101473.47
2018-10-12T17:39:20.157Z,101476.91
2018-10-12T17:41:51.304Z,101479.95
2018-10-12T17:44:23.463Z,101488.91
2018-10-12T17:46:54.220Z,101482.70
2018-10-12T17:49:24.322Z,101487.59
2018-10-12T17:51:56.462Z,101497.23
2018-10-12T17:54:26.641Z,101496.23
2018-10-12T17:56:57.968Z,101500.44
2018-10-12T17:59:29.026Z,101503.88
2018-10-12T18:02:02.827Z,101503.30
2018-10-12T18:04:33.469Z,101509.16
2018-10-12T18:07:05.529Z,101513.36
2018-10-12T18:09:36.473Z,101509.72
2018-10-12T18:12:06.166Z,101501.81
2018-10-12T18:14:35.755Z,101501.81
2018-10-12T18:17:12.128Z,101500.44
2018-10-12T18:19:41.649Z,101496.62
2018-10-12T18:22:11.152Z,101499.22
2018-10-12T18:24:40.515Z,101504.59
2018-10-12T18:27:09.852Z,101505.33
2018-10-12T18:29:39.139Z,101512.63
2018-10-12T18:32:08.954Z,101511.80
2018-10-12T18:34:38.860Z,101513.84
2018-10-12T18:37:08.246Z,101506.89
2018-10-12T18:39:37.783Z,101511.53
2018-10-12T18:42:07.253Z,101519.25
2018-10-12T18:44:37.068Z,101516.30
2018-10-12T18:47:07.155Z,101525.14
2018-10-12T18:49:36.924Z,101524.53
2018-10-12T18:52:06.426Z,101530.64
2018-10-12T18:54:35.794Z,101525.65
2018-10-12T18:57:05.308Z,101528.68
2018-10-12T18:59:34.993Z,101528.71
2018-10-12T19:02:04.545Z,101532.25
2018-10-12T19:04:34.097Z,101531.03
2018-10-12T19:07:04.154Z,101541.19
2018-10-12T19:09:33.718Z,101541.02
2018-10-12T19:12:03.391Z,101539.44
2018-10-12T19:14:32.913Z,101536.88
2018-10-12T19:17:02.722Z,101535.66
2018-10-12T19:19:32.545Z,101540.19
2018-10-12T19:22:01.908Z,101543.99
2018-10-12T19:24:31.332Z,101543.98
2018-10-12T19:27:00.930Z,101544.23
2018-10-12T19:29:31.200Z,101542.14
2018-10-12T19:32:00.613Z,101542.16
2018-10-12T19:34:29.958Z,101542.14
2018-10-12T19:36:59.884Z,101546.80
2018-10-12T19:39:29.480Z,101546.66
2018-10-12T19:41:59.109Z,101553.51
2018-10-12T19:44:28.914Z,101554.34
2018-10-12T19:46:58.461Z,101560.31
2018-10-12T19:49:27.921Z,101559.22
2018-10-12T19:51:57.330Z,101554.45
2018-10-12T19:54:26.922Z,101558.36
2018-10-12T19:56:56.255Z,101554.34
2018-10-12T19:59:25.813Z,101560.55
2018-10-12T20:01:55.302Z,101566.59
2018-10-12T20:04:24.611Z,101567.07
2018-10-12T20:06:54.084Z,101564.98
2018-10-12T20:09:23.528Z,101569.88
2018-10-12T20:11:52.947Z,101565.81
2018-10-12T20:14:22.417Z,101572.41
2018-10-12T20:16:51.970Z,101563.61
2018-10-12T20:19:21.254Z,101570.43
2018-10-12T20:21:50.583Z,101576.98
2018-10-12T20:24:20.021Z,101573.08
2018-10-12T20:26:49.446Z,101571.61
2018-10-12T20:29:18.801Z,101577.20
2018-10-12T20:31:48.235Z,101577.92
2018-10-12T20:34:18.137Z,101574.48
2018-10-12T20:36:47.793Z,101586.66
2018-10-12T20:39:17.532Z,101584.69
2018-10-12T20:41:47.158Z,101579.83
2018-10-12T20:44:16.647Z,101581.48
2018-10-12T20:46:46.130Z,101577.81
2018-10-12T20:49:15.614Z,101575.00
2018-10-12T20:51:45.028Z,101569.12
2018-10-12T20:54:14.589Z,101573.09
2018-10-12T20:56:43.921Z,101574.15
2018-10-12T20:59:13.654Z,101574.89
2018-10-12T21:01:43.037Z,101574.61
2018-10-12T21:04:12.655Z,101573.02
2018-10-12T21:06:42.061Z,101578.61
2018-10-12T21:09:11.825Z,101572.97
2018-10-12T21:11:41.542Z,101581.23
2018-10-12T21:14:12.285Z,101576.09
2018-10-12T21:16:41.760Z,101578.53
2018-10-12T21:19:12.146Z,101582.05
2018-10-12T21:21:41.615Z,101581.57
2018-10-12T21:24:11.382Z,101576.33
2018-10-12T21:26:40.874Z,101578.25
2018-10-12T21:29:10.209Z,101578.25
2018-10-12T21:31:39.673Z,101573.28
2018-10-12T21:34:09.575Z,101575.34
2018-10-12T21:36:39.107Z,101577.44
2018-10-12T21:39:08.559Z,101572.25
2018-10-12T21:41:38.294Z,101571.63
2018-10-12T21:44:07.825Z,101569.70
2018-10-12T21:46:37.454Z,101576.04
2018-10-12T21:49:06.782Z,101573.72
2018-10-12T21:51:36.135Z,101577.38
2018-10-12T21:54:05.467Z,101578.49
2018-10-12T21:56:34.885Z,101586.89
2018-10-12T21:59:04.286Z,101576.17
2018-10-12T22:01:33.852Z,101585.33
2018-10-12T22:04:03.333Z,101576.81
2018-10-12T22:06:33.089Z,101576.70
2018-10-12T22:09:05.934Z,101573.55
2018-10-12T22:11:35.299Z,101568.38
2018-10-12T22:14:05.193Z,101572.09
2018-10-12T22:16:34.548Z,101572.56
2018-10-12T22:19:03.924Z,101568.19
2018-10-12T22:21:33.385Z,101569.25
2018-10-12T22:24:02.972Z,101564.86
2018-10-12T22:26:32.499Z,101568.13
2018-10-12T22:29:02.070Z,101559.34
2018-10-12T22:31:31.536Z,101547.73
2018-10-12T22:34:00.968Z,101557.17
2018-10-12T22:36:31.294Z,101553.27
2018-10-12T22:39:00.608Z,101556.41
2018-10-12T22:41:30.195Z,101552.15
2018-10-12T22:43:59.502Z,101552.73
2018-10-12T22:46:29.333Z,101549.19
2018-10-12T22:48:58.822Z,101551.03
2018-10-12T22:51:28.161Z,101549.30
2018-10-12T22:53:57.725Z,101542.88
2018-10-12T22:56:27.177Z,101547.38
2018-10-12T22:58:56.800Z,101536.25
2018-10-12T23:01:26.249Z,101539.41
2018-10-12T23:03:55.611Z,101541.72
2018-10-12T23:06:25.016Z,101545.61
2018-10-12T23:08:54.354Z,101541.19
2018-10-12T23:11:23.649Z,101534.83
2018-10-12T23:13:52.976Z,101538.97
2018-10-12T23:16:22.373Z,101533.83
2018-10-12T23:18:51.824Z,101527.34
2018-10-12T23:21:21.944Z,101537.19
2018-10-12T23:23:52.092Z,101530.82
2018-10-12T23:26:21.496Z,101526.70
2018-10-12T23:28:50.872Z,101519.83
2018-10-12T23:31:20.613Z,101528.39
2018-10-12T23:34:00.866Z,101527.86
2018-10-12T23:36:31.516Z,101519.22
2018-10-12T23:39:01.386Z,101515.42
2018-10-12T23:41:31.126Z,101525.74
2018-10-12T23:44:01.361Z,101525.37
2018-10-12T23:46:31.386Z,101523.57
2018-10-12T23:49:00.780Z,101517.69
2018-10-12T23:51:31.019Z,101516.56
2018-10-12T23:54:00.600Z,101519.49
2018-10-12T23:56:29.864Z,101521.92
2018-10-12T23:58:59.231Z,101521.75
